Time;durP1;ratioP1;P1;durP2;ratioP2;P2;SDS_P1;SDS_P2;PMS_P1;PMS_P2;Temp;Humidity;BMP_temperature;BMP_pressure;BME280_temperature;BME280_humidity;BME280_pressure;Samples;Min_cycle;Max_cycle;Signal;HPM_P1;HPM_P2
2021/06/18 00:03:28;;;;;;;1999.90;999.90;;;;;;;23.68;59.10;98140.81;3825637;77;44611;-24
2021/06/18 00:08:36;;;;;;;1999.90;999.90;;;;;;;23.58;59.80;98140.65;3878980;76;43248;-24
2021/06/18 00:13:42;;;;;;;1999.90;999.90;;;;;;;23.49;59.81;98143.02;3906990;75;43718;-24
2021/06/18 00:18:48;;;;;;;1999.90;999.90;;;;;;;23.49;59.52;98142.17;3972945;74;43670;-24
2021/06/18 00:23:54;;;;;;;1999.90;999.90;;;;;;;23.44;59.60;98146.23;3897065;76;43345;-24
2021/06/18 00:29:00;;;;;;;1999.90;999.90;;;;;;;23.47;59.07;98147.09;3832522;77;43357;-23
2021/06/18 00:34:06;;;;;;;1999.90;999.90;;;;;;;23.44;59.36;98144.86;3881837;76;43131;-22
2021/06/18 00:39:12;;;;;;;1999.90;999.90;;;;;;;23.41;59.43;98138.48;3897994;76;44650;-22
2021/06/18 00:44:18;;;;;;;1999.90;999.90;;;;;;;23.35;59.58;98143.89;3885130;76;43028;-24
2021/06/18 00:49:25;;;;;;;1999.90;999.90;;;;;;;23.32;59.56;98137.55;3855299;76;43054;-24
2021/06/18 00:54:31;;;;;;;1999.90;999.90;;;;;;;23.27;59.69;98127.84;3846967;75;43499;-25
2021/06/18 00:59:37;;;;;;;1999.90;999.90;;;;;;;23.22;59.87;98129.97;3843821;75;43348;-25
2021/06/18 01:04:44;;;;;;;1999.90;999.90;;;;;;;23.18;60.04;98126.57;3842120;75;43336;-23
2021/06/18 01:09:55;;;;;;;1999.90;999.90;;;;;;;23.12;60.14;98129.78;3837066;76;43488;-23
2021/06/18 01:15:05;;;;;;;1999.90;999.90;;;;;;;23.03;60.58;98123.86;3842049;76;43710;-23
2021/06/18 01:25:54;;;;;;;1999.90;999.90;;;;;;;22.98;61.00;98119.68;4003431;72;27222;-22
2021/06/18 01:31:03;;;;;;;1999.90;999.90;;;;;;;22.90;60.81;98121.45;3928384;73;43412;-21
2021/06/18 01:36:12;;;;;;;1999.90;999.90;;;;;;;22.84;61.27;98112.28;3923934;75;44066;-21
2021/06/18 01:41:21;;;;;;;1999.90;999.90;;;;;;;22.75;61.69;98106.92;3928928;75;44015;-22
2021/06/18 01:46:30;;;;;;;1999.90;999.90;;;;;;;22.71;61.71;98107.11;3922028;73;43361;-21
2021/06/18 01:51:36;;;;;;;1999.90;999.90;;;;;;;22.69;61.78;98102.44;3932772;75;44479;-21
2021/06/18 01:56:43;;;;;;;1999.90;999.90;;;;;;;22.67;61.49;98096.36;3922475;75;43720;-21
2021/06/18 02:01:50;;;;;;;1999.90;999.90;;;;;;;22.63;61.59;98093.28;3934161;73;43726;-21
2021/06/18 02:12:12;;;;;;;1999.90;999.90;;;;;;;22.51;63.17;98085.66;4005839;72;27623;-19
2021/06/18 02:17:20;;;;;;;1999.90;999.90;;;;;;;22.32;63.73;98091.31;3932796;75;43341;-22
2021/06/18 02:22:27;;;;;;;1999.90;999.90;;;;;;;22.13;64.90;98094.79;3937712;75;43778;-21
2021/06/18 02:27:35;;;;;;;1999.90;999.90;;;;;;;21.98;65.57;98088.47;3910500;73;43038;-20
2021/06/18 02:32:42;;;;;;;1999.90;999.90;;;;;;;21.93;65.66;98083.72;3922304;75;43447;-21
2021/06/18 02:37:49;;;;;;;1999.90;999.90;;;;;;;21.90;65.78;98088.86;3927219;73;44454;-23
2021/06/18 02:42:55;;;;;;;1999.90;999.90;;;;;;;21.86;66.03;98087.16;3925666;73;43461;-23
2021/06/18 02:48:05;;;;;;;1999.90;999.90;;;;;;;21.82;66.23;98086.78;3918076;75;43452;-23
2021/06/18 02:53:19;;;;;;;1999.90;999.90;;;;;;;21.79;66.52;98084.55;3922019;75;42851;-23
2021/06/18 02:58:28;;;;;;;1999.90;999.90;;;;;;;21.74;66.89;98089.09;3937565;73;43399;-23
2021/06/18 03:03:39;;;;;;;1999.90;999.90;;;;;;;21.66;67.63;98093.04;3914742;75;43133;-23
2021/06/18 03:08:48;;;;;;;1999.90;999.90;;;;;;;21.54;68.63;98095.75;3911968;73;43709;-21
2021/06/18 03:13:57;;;;;;;1999.90;999.90;;;;;;;21.48;68.87;98100.30;3892778;73;43341;-20
2021/06/18 03:19:08;;;;;;;1999.90;999.90;;;;;;;21.44;69.11;98103.23;3903673;75;44052;-22
2021/06/18 03:24:16;;;;;;;1999.90;999.90;;;;;;;21.42;69.33;98103.16;3907524;75;43682;-22
2021/06/18 03:29:24;;;;;;;1999.90;999.90;;;;;;;21.44;69.02;98103.75;3916943;74;43715;-22
2021/06/18 03:34:32;;;;;;;1999.90;999.90;;;;;;;21.45;69.00;98104.91;3909414;75;44060;-22
2021/06/18 03:39:40;;;;;;;1999.90;999.90;;;;;;;21.45;69.26;98105.42;3890413;75;44040;-23
2021/06/18 03:44:48;;;;;;;1999.90;999.90;;;;;;;21.46;69.19;98113.95;3894088;74;44063;-19
2021/06/18 03:49:55;;;;;;;1999.90;999.90;;;;;;;21.44;69.86;98114.20;3906839;74;43142;-21
2021/06/18 03:55:02;;;;;;;1999.90;999.90;;;;;;;21.46;69.24;98114.77;3909683;74;44562;-23
2021/06/18 04:05:24;;;;;;;1999.90;999.90;;;;;;;21.63;69.07;98106.70;4001614;72;27197;-22
2021/06/18 04:10:32;;;;;;;1999.90;999.90;;;;;;;21.62;68.14;98114.62;3940255;75;44053;-24
2021/06/18 04:15:38;;;;;;;1999.90;999.90;;;;;;;21.66;67.91;98108.94;3919637;73;44041;-24
2021/06/18 04:20:45;;;;;;;1999.90;999.90;;;;;;;21.72;67.77;98114.54;3919436;73;43987;-24
2021/06/18 04:25:51;;;;;;;1999.90;999.90;;;;;;;21.73;68.07;98128.00;3940809;75;43491;-24
2021/06/18 04:30:57;;;;;;;1999.90;999.90;;;;;;;21.75;68.43;98122.30;3938871;73;44579;-24
2021/06/18 04:36:05;;;;;;;1999.90;999.90;;;;;;;21.78;68.93;98119.89;3919796;73;44095;-23
2021/06/18 04:41:11;;;;;;;1999.90;999.90;;;;;;;21.79;69.77;98123.45;3915316;75;44034;-24
2021/06/18 04:46:17;;;;;;;1999.90;999.90;;;;;;;21.85;70.22;98129.36;3928629;75;43179;-24
2021/06/18 04:51:24;;;;;;;1999.90;999.90;;;;;;;21.91;69.53;98121.52;3938606;73;44059;-24
2021/06/18 04:56:30;;;;;;;1999.90;999.90;;;;;;;21.99;69.39;98111.53;3922511;75;43678;-24
2021/06/18 05:01:36;;;;;;;1999.90;999.90;;;;;;;22.07;69.24;98104.01;3936456;73;43377;-24
2021/06/18 05:06:43;;;;;;;1999.90;999.90;;;;;;;22.15;68.79;98108.58;3923739;74;43255;-24
2021/06/18 05:11:49;;;;;;;1999.90;999.90;;;;;;;22.28;68.99;98112.92;3919523;75;43378;-24
2021/06/18 05:16:55;;;;;;;1999.90;999.90;;;;;;;22.39;68.24;98111.22;3936902;74;43720;-24
2021/06/18 05:22:01;;;;;;;1999.90;999.90;;;;;;;22.49;67.94;98116.08;3937353;75;43390;-24
2021/06/18 05:27:08;;;;;;;1999.90;999.90;;;;;;;22.56;67.54;98121.41;3929554;74;43691;-24
2021/06/18 05:32:16;;;;;;;1999.90;999.90;;;;;;;22.67;67.62;98116.39;3926832;75;43681;-24
2021/06/18 05:37:23;;;;;;;1999.90;999.90;;;;;;;22.76;67.30;98125.06;3927044;74;42603;-23
2021/06/18 05:42:30;;;;;;;1999.90;999.90;;;;;;;22.86;67.81;98113.43;3935834;74;44441;-23
2021/06/18 05:47:36;;;;;;;1999.90;999.90;;;;;;;23.00;67.40;98128.48;3936868;75;44200;-23
2021/06/18 05:52:42;;;;;;;1999.90;999.90;;;;;;;23.12;66.68;98125.66;3919936;75;43694;-23
2021/06/18 05:57:50;;;;;;;1999.90;999.90;;;;;;;23.18;66.72;98129.32;3924793;74;42880;-23
2021/06/18 06:02:58;;;;;;;1999.90;999.90;;;;;;;23.33;66.79;98137.84;3927520;75;44039;-24
2021/06/18 06:08:07;;;;;;;1999.90;999.90;;;;;;;23.41;67.12;98138.48;3937501;75;43083;-24
2021/06/18 06:13:17;;;;;;;1999.90;999.90;;;;;;;23.52;66.42;98144.42;3933075;74;43361;-23
2021/06/18 06:18:23;;;;;;;1999.90;999.90;;;;;;;23.65;67.17;98143.22;3923228;75;44742;-23
2021/06/18 06:23:30;;;;;;;1999.90;999.90;;;;;;;23.83;67.10;98139.34;3927986;75;44431;-23
2021/06/18 06:28:36;;;;;;;1999.90;999.90;;;;;;;23.94;65.88;98141.13;3932851;74;43347;-24
2021/06/18 06:38:55;;;;;;;1999.90;999.90;;;;;;;24.24;66.64;98136.28;4014780;73;27626;-24
2021/06/18 06:44:01;;;;;;;1999.90;999.90;;;;;;;24.34;65.49;98136.95;3962601;73;43742;-25
2021/06/18 06:49:07;;;;;;;1999.90;999.90;;;;;;;24.51;66.11;98127.22;3971609;73;44479;-24
2021/06/18 06:54:13;;;;;;;1999.90;999.90;;;;;;;24.65;64.53;98134.51;3969956;73;43250;-23
2021/06/18 06:59:19;;;;;;;1999.90;999.90;;;;;;;24.77;64.75;98143.47;3966084;73;43698;-23
2021/06/18 07:04:25;;;;;;;1999.90;999.90;;;;;;;24.93;63.98;98142.53;3966170;73;43275;-25
2021/06/18 07:09:33;;;;;;;1999.90;999.90;;;;;;;25.13;64.91;98147.92;3960118;73;42954;-24
2021/06/18 07:14:40;;;;;;;1999.90;999.90;;;;;;;25.31;66.33;98156.89;3976788;73;44020;-24
2021/06/18 07:19:46;;;;;;;1999.90;999.90;;;;;;;25.40;65.67;98149.78;3967398;73;44032;-25
2021/06/18 07:24:52;;;;;;;1999.90;999.90;;;;;;;25.59;63.72;98153.50;3960870;73;43427;-25
2021/06/18 07:30:00;;;;;;;1999.90;999.90;;;;;;;25.77;64.83;98160.51;3969833;73;43110;-24
2021/06/18 07:35:08;;;;;;;1999.90;999.90;;;;;;;25.88;63.78;98151.75;3961805;73;44110;-24
2021/06/18 07:40:17;;;;;;;1999.90;999.90;;;;;;;25.97;62.73;98147.37;3938000;74;43974;-24
2021/06/18 07:45:24;;;;;;;1999.90;999.90;;;;;;;26.14;62.23;98139.76;3933978;73;43049;-25
2021/06/18 07:50:30;;;;;;;1999.90;999.90;;;;;;;26.26;62.36;98136.75;3934441;74;44152;-25
2021/06/18 07:55:36;;;;;;;1999.90;999.90;;;;;;;26.42;62.44;98137.61;3943125;74;44204;-25
2021/06/18 08:00:42;;;;;;;1999.90;999.90;;;;;;;26.63;62.03;98131.30;3934099;73;44503;-25
2021/06/18 08:05:49;;;;;;;1999.90;999.90;;;;;;;26.73;61.56;98125.80;3938221;74;42800;-25
2021/06/18 08:10:57;;;;;;;1999.90;999.90;;;;;;;26.80;60.75;98126.94;3938500;74;43321;-25
2021/06/18 08:16:05;;;;;;;1999.90;999.90;;;;;;;26.98;59.26;98131.94;3932661;73;43735;-25
2021/06/18 08:21:11;;;;;;;1999.90;999.90;;;;;;;27.15;59.69;98122.52;3933804;73;43687;-25
2021/06/18 08:26:17;;;;;;;1999.90;999.90;;;;;;;27.34;57.92;98122.77;3934759;74;43407;-25
2021/06/18 08:31:23;;;;;;;1999.90;999.90;;;;;;;27.35;57.64;98123.87;3935859;73;43483;-25
2021/06/18 08:36:30;;;;;;;1999.90;999.90;;;;;;;27.56;56.87;98125.27;3935141;74;44488;-26
2021/06/18 08:41:38;;;;;;;1999.90;999.90;;;;;;;27.76;58.14;98118.01;3954589;73;44065;-26
2021/06/18 08:46:45;;;;;;;1999.90;999.90;;;;;;;27.98;56.78;98119.86;3947840;74;44025;-25
2021/06/18 08:57:05;;;;;;;1999.90;999.90;;;;;;;28.25;55.27;98117.81;4009240;73;27194;-23
2021/06/18 09:07:25;;;;;;;1999.90;999.90;;;;;;;28.67;54.68;98115.08;3974606;73;27555;-23
2021/06/18 09:12:30;;;;;;;1999.90;999.90;;;;;;;28.79;55.37;98107.80;3894572;75;43404;-24
2021/06/18 09:17:38;;;;;;;1999.90;999.90;;;;;;;28.91;54.84;98111.61;3989049;73;44069;-26
2021/06/18 09:22:45;;;;;;;1999.90;999.90;;;;;;;29.08;54.42;98113.95;3959538;73;43756;-24
2021/06/18 09:27:52;;;;;;;1999.90;999.90;;;;;;;29.17;50.84;98116.37;3926855;75;44545;-24
2021/06/18 09:33:01;;;;;;;1999.90;999.90;;;;;;;29.09;49.48;98117.55;3904627;73;44109;-24
2021/06/18 09:38:08;;;;;;;1999.90;999.90;;;;;;;29.24;50.42;98110.48;3915920;75;43311;-24
2021/06/18 09:43:16;;;;;;;1999.90;999.90;;;;;;;29.48;47.18;98120.83;3911271;75;43447;-25
2021/06/18 09:48:23;;;;;;;1999.90;999.90;;;;;;;29.66;47.03;98113.69;3896057;74;44067;-24
2021/06/18 09:53:32;;;;;;;1999.90;999.90;;;;;;;29.66;44.31;98113.69;3936549;75;44439;-24
2021/06/18 09:58:40;;;;;;;1999.90;999.90;;;;;;;29.80;43.04;98114.64;3896094;75;44020;-24
2021/06/18 10:04:03;;;;;;;1999.90;999.90;;;;;;;29.97;43.52;98108.64;3960986;73;43409;-24
2021/06/18 10:09:14;;;;;;;1999.90;999.90;;;;;;;30.26;42.15;98104.09;3937448;75;43663;-24
2021/06/18 10:14:21;;;;;;;1999.90;999.90;;;;;;;30.52;41.19;98106.52;3934078;75;43486;-24
2021/06/18 10:19:30;;;;;;;1999.90;999.90;;;;;;;30.68;38.97;98105.75;3868958;75;43484;-24
2021/06/18 10:24:40;;;;;;;1999.90;999.90;;;;;;;30.90;38.83;98095.36;3869109;75;44032;-26
2021/06/18 10:29:47;;;;;;;1999.90;999.90;;;;;;;31.09;37.78;98095.91;3869597;74;43747;-24
2021/06/18 10:34:53;;;;;;;1999.90;999.90;;;;;;;31.22;37.01;98102.10;3868930;75;43305;-24
2021/06/18 10:45:18;;;;;;;1999.90;999.90;;;;;;;31.50;35.79;98100.73;4048117;73;27177;-26
2021/06/18 10:50:50;;;;;;;1999.90;999.90;;;;;;;31.54;36.37;98091.20;4026560;73;44637;-26
2021/06/18 11:01:15;;;;;;;1999.90;999.90;;;;;;;31.79;38.22;98092.12;4048683;72;27139;-23
2021/06/18 11:06:46;;;;;;;1999.90;999.90;;;;;;;31.72;37.27;98080.58;3954232;75;44489;-24
2021/06/18 11:11:54;;;;;;;1999.90;999.90;;;;;;;31.72;37.27;98080.58;3881126;76;44526;-22
2021/06/18 11:17:01;;;;;;;1999.90;999.90;;;;;;;32.13;36.48;98077.49;4006809;73;44097;-22
2021/06/18 11:27:47;;;;;;;1999.90;999.90;;;;;;;32.39;37.14;98075.56;4048577;73;27091;-21
2021/06/18 11:32:54;;;;;;;1999.90;999.90;;;;;;;32.39;37.14;98075.56;3990494;73;43964;-22
2021/06/18 11:38:03;;;;;;;1999.90;999.90;;;;;;;32.76;37.13;98058.20;3918494;74;43472;-24
2021/06/18 11:43:10;;;;;;;1999.90;999.90;;;;;;;32.97;37.64;98064.13;3919905;75;44483;-23
2021/06/18 11:48:17;;;;;;;1999.90;999.90;;;;;;;33.16;37.35;98066.70;3964657;73;44947;-23
2021/06/18 11:53:24;;;;;;;1999.90;999.90;;;;;;;33.37;36.58;98067.56;3770015;78;43556;-24
2021/06/18 12:03:47;;;;;;;1999.90;999.90;;;;;;;33.48;35.71;98053.57;4062909;72;27287;-22
2021/06/18 12:09:01;;;;;;;1999.90;999.90;;;;;;;33.63;35.59;98049.55;3957487;75;44155;-22
2021/06/18 12:14:08;;;;;;;1999.90;999.90;;;;;;;33.83;35.75;98046.45;3959789;75;44177;-22
2021/06/18 12:19:24;;;;;;;1999.90;999.90;;;;;;;34.02;36.10;98043.41;3963146;75;44081;-22
2021/06/18 12:24:33;;;;;;;1999.90;999.90;;;;;;;33.91;34.77;98048.50;3959329;75;43357;-22
2021/06/18 12:29:41;;;;;;;1999.90;999.90;;;;;;;33.83;34.63;98038.91;3970329;73;44131;-22
2021/06/18 12:34:51;;;;;;;1999.90;999.90;;;;;;;34.02;34.20;98037.25;4039148;73;44052;-22
2021/06/18 12:40:00;;;;;;;1999.90;999.90;;;;;;;34.37;34.17;98037.84;4026975;73;44034;-22
2021/06/18 12:45:12;;;;;;;1999.90;999.90;;;;;;;34.53;34.04;98034.84;3992734;73;43265;-22
2021/06/18 12:50:31;;;;;;;1999.90;999.90;;;;;;;34.37;33.64;98033.65;4046036;73;43370;-22
2021/06/18 12:55:40;;;;;;;1999.90;999.90;;;;;;;34.99;33.98;98028.88;4008461;73;43467;-23
2021/06/18 13:06:06;;;;;;;1999.90;999.90;;;;;;;35.37;32.03;98031.45;4013046;73;27248;-21
2021/06/18 13:11:24;;;;;;;1999.90;999.90;;;;;;;35.57;32.27;98027.95;3957688;75;43717;-22
2021/06/18 13:16:32;;;;;;;1999.90;999.90;;;;;;;35.81;32.29;98032.67;3957626;73;43435;-22
2021/06/18 13:21:47;;;;;;;1999.90;999.90;;;;;;;36.05;32.50;98027.27;3957228;75;43355;-22
2021/06/18 13:26:55;;;;;;;1999.90;999.90;;;;;;;36.00;32.08;98023.85;3957125;75;44044;-22
2021/06/18 13:32:01;;;;;;;1999.90;999.90;;;;;;;36.21;31.58;98021.06;3960249;75;42991;-22
2021/06/18 13:37:09;;;;;;;1999.90;999.90;;;;;;;36.50;31.39;98024.40;3959243;73;44094;-22
2021/06/18 13:42:15;;;;;;;1999.90;999.90;;;;;;;36.39;31.27;98023.15;3970711;73;43447;-23
2021/06/18 13:47:21;;;;;;;1999.90;999.90;;;;;;;36.12;30.82;98021.69;3970204;73;43678;-23
2021/06/18 13:52:28;;;;;;;1999.90;999.90;;;;;;;36.37;31.21;98022.66;3962672;73;43365;-23
2021/06/18 13:57:35;;;;;;;1999.90;999.90;;;;;;;36.91;30.81;98023.29;3967724;73;43409;-23
2021/06/18 14:02:42;;;;;;;1999.90;999.90;;;;;;;37.14;31.37;98016.66;3969589;73;44763;-23
2021/06/18 14:07:49;;;;;;;1999.90;999.90;;;;;;;37.60;30.29;98015.21;3849386;76;43469;-23
2021/06/18 14:12:56;;;;;;;1999.90;999.90;;;;;;;37.72;30.29;98009.34;3847875;76;42958;-23
2021/06/18 14:18:02;;;;;;;1999.90;999.90;;;;;;;37.89;30.11;98008.30;3864834;76;43387;-24
2021/06/18 14:23:08;;;;;;;1999.90;999.90;;;;;;;38.28;29.48;98010.67;3912992;75;44081;-25
2021/06/18 14:28:15;;;;;;;1999.90;999.90;;;;;;;37.98;29.39;98013.80;3911020;74;44082;-25
2021/06/18 14:33:22;;;;;;;1999.90;999.90;;;;;;;37.90;29.26;98012.76;3906002;75;44023;-25
2021/06/18 14:38:29;;;;;;;1999.90;999.90;;;;;;;37.59;29.49;98000.92;3899310;76;43227;-25
2021/06/18 14:43:36;;;;;;;1999.90;999.90;;;;;;;37.67;29.46;97999.17;3899557;75;44060;-25
2021/06/18 14:48:43;;;;;;;1999.90;999.90;;;;;;;37.27;30.29;98006.84;3899310;76;43415;-25
2021/06/18 14:53:49;;;;;;;1999.90;999.90;;;;;;;37.38;29.62;98009.43;3898855;75;44033;-25
2021/06/18 15:04:08;;;;;;;1999.90;999.90;;;;;;;37.50;28.58;98003.61;4009590;72;27231;-24
2021/06/18 15:09:14;;;;;;;1999.90;999.90;;;;;;;38.11;29.01;97999.92;3894865;75;42715;-24
2021/06/18 15:14:20;;;;;;;1999.90;999.90;;;;;;;38.28;28.77;97987.56;3929945;73;44020;-24
2021/06/18 15:19:26;;;;;;;1999.90;999.90;;;;;;;38.79;28.30;97992.67;3895315;76;43390;-24
2021/06/18 15:29:45;;;;;;;1999.90;999.90;;;;;;;38.80;26.30;97987.84;4068557;72;27758;-25
2021/06/18 15:34:51;;;;;;;1999.90;999.90;;;;;;;38.17;28.36;97990.64;3956546;75;44113;-24
2021/06/18 15:39:59;;;;;;;1999.90;999.90;;;;;;;37.93;27.21;97981.10;3965917;74;43498;-24
2021/06/18 15:45:08;;;;;;;1999.90;999.90;;;;;;;37.77;28.39;97987.44;3961411;73;43702;-24
2021/06/18 15:50:15;;;;;;;1999.90;999.90;;;;;;;38.02;27.43;97988.84;3962349;75;43717;-24
2021/06/18 15:55:23;;;;;;;1999.90;999.90;;;;;;;38.29;28.23;97985.58;3956857;75;44529;-24
2021/06/18 16:00:29;;;;;;;1999.90;999.90;;;;;;;38.55;27.22;97978.11;3958073;73;43457;-24
2021/06/18 16:05:36;;;;;;;1999.90;999.90;;;;;;;38.30;28.41;97981.00;3957109;75;44530;-24
2021/06/18 16:10:42;;;;;;;1999.90;999.90;;;;;;;38.47;28.17;97979.91;4003261;73;43329;-25
2021/06/18 16:15:49;;;;;;;1999.90;999.90;;;;;;;37.91;28.72;97980.66;3981891;73;43704;-25
2021/06/18 16:20:55;;;;;;;1999.90;999.90;;;;;;;37.89;28.38;97981.00;3981228;73;44411;-25
2021/06/18 16:26:01;;;;;;;1999.90;999.90;;;;;;;37.71;28.87;97969.16;4018460;73;44027;-25
2021/06/18 16:36:21;;;;;;;1999.90;999.90;;;;;;;38.12;28.40;97974.04;4033189;73;27198;-24
2021/06/18 16:41:31;;;;;;;1999.90;999.90;;;;;;;37.59;29.09;97974.23;3973383;74;43634;-26
2021/06/18 16:46:37;;;;;;;1999.90;999.90;;;;;;;37.02;29.85;97975.92;3901570;73;43361;-25
2021/06/18 16:51:43;;;;;;;1999.90;999.90;;;;;;;37.06;29.62;97976.88;3895435;75;44525;-25
2021/06/18 17:02:04;;;;;;;1999.90;999.90;;;;;;;36.88;29.96;97974.82;4040732;72;27228;-24
2021/06/18 17:12:55;;;;;;;1999.90;999.90;;;;;;;36.29;30.38;97975.86;4063121;73;27177;-25
2021/06/18 17:18:01;;;;;;;1999.90;999.90;;;;;;;36.24;31.34;97973.52;3955251;73;44574;-24
2021/06/18 17:23:07;;;;;;;1999.90;999.90;;;;;;;35.98;31.31;97970.94;3953389;75;44661;-25
2021/06/18 17:28:14;;;;;;;1999.90;999.90;;;;;;;35.63;31.79;97972.55;3953536;75;43071;-25
2021/06/18 17:33:22;;;;;;;1999.90;999.90;;;;;;;35.97;31.45;97973.50;3952933;75;42886;-25
2021/06/18 17:38:30;;;;;;;1999.90;999.90;;;;;;;35.72;31.77;97976.11;3958975;75;43423;-25
2021/06/18 17:48:49;;;;;;;1999.90;999.90;;;;;;;35.05;31.03;97974.34;4031246;72;27201;-24
2021/06/18 17:53:55;;;;;;;1999.90;999.90;;;;;;;34.64;31.66;97980.75;3923850;75;44522;-24
2021/06/18 17:59:02;;;;;;;1999.90;999.90;;;;;;;34.19;32.07;97984.73;3958331;75;44008;-25
2021/06/18 18:04:08;;;;;;;1999.90;999.90;;;;;;;33.85;32.54;97982.13;3891799;75;43396;-24
2021/06/18 18:09:14;;;;;;;1999.90;999.90;;;;;;;33.57;32.47;97983.80;3903470;75;44174;-25
2021/06/18 18:14:20;;;;;;;1999.90;999.90;;;;;;;33.34;32.80;97992.27;3921791;73;43704;-25
2021/06/18 18:19:27;;;;;;;1999.90;999.90;;;;;;;33.15;33.25;97986.09;3892454;76;44184;-25
2021/06/18 18:24:35;;;;;;;1999.90;999.90;;;;;;;32.89;33.37;97991.77;3932560;75;42932;-25
2021/06/18 18:29:42;;;;;;;1999.90;999.90;;;;;;;32.60;33.81;97990.02;3960112;73;43388;-25
2021/06/18 18:34:49;;;;;;;1999.90;999.90;;;;;;;31.98;34.54;97995.08;3936425;75;43280;-25
2021/06/18 18:39:55;;;;;;;1999.90;999.90;;;;;;;31.59;35.12;97987.52;3923412;75;44213;-25
2021/06/18 18:45:02;;;;;;;1999.90;999.90;;;;;;;31.22;35.45;97986.62;3931017;73;42849;-25
2021/06/18 18:50:12;;;;;;;1999.90;999.90;;;;;;;30.93;36.39;97998.80;3878219;76;43686;-25
2021/06/18 18:55:19;;;;;;;1999.90;999.90;;;;;;;30.49;36.90;97987.59;3907381;73;44014;-25
2021/06/18 19:00:26;;;;;;;1999.90;999.90;;;;;;;30.22;37.41;97986.34;3908112;74;43171;-25
2021/06/18 19:05:32;;;;;;;1999.90;999.90;;;;;;;30.01;37.28;97984.42;3898044;74;43728;-25
2021/06/18 19:10:38;;;;;;;1999.90;999.90;;;;;;;29.86;37.98;97989.61;3865027;75;44026;-24
2021/06/18 19:15:44;;;;;;;1999.90;999.90;;;;;;;29.86;37.98;97989.61;3908846;74;43694;-24
2021/06/18 19:20:51;;;;;;;1999.90;999.90;;;;;;;29.62;38.22;97991.88;3896555;75;43732;-24
2021/06/18 19:25:57;;;;;;;1999.90;999.90;;;;;;;29.45;38.23;97996.52;3872650;75;44050;-25
2021/06/18 19:31:03;;;;;;;1999.90;999.90;;;;;;;29.27;38.38;97995.32;3926134;74;42917;-25
2021/06/18 19:36:10;;;;;;;1999.90;999.90;;;;;;;29.20;38.18;98008.99;3940076;74;44502;-23
2021/06/18 19:41:17;;;;;;;1999.90;999.90;;;;;;;29.09;38.22;98013.55;3869997;75;43722;-24
2021/06/18 19:46:24;;;;;;;1999.90;999.90;;;;;;;28.84;38.45;98002.97;3919898;74;44496;-25
2021/06/18 19:51:30;;;;;;;1999.90;999.90;;;;;;;28.62;38.86;98008.98;3889449;75;44048;-25
2021/06/18 19:56:37;;;;;;;1999.90;999.90;;;;;;;28.43;39.04;98014.66;3890600;75;44532;-24
2021/06/18 20:01:43;;;;;;;1999.90;999.90;;;;;;;28.11;39.69;98015.16;3924093;75;44571;-25
2021/06/18 20:06:49;;;;;;;1999.90;999.90;;;;;;;27.85;40.16;98012.50;3893412;75;43101;-25
2021/06/18 20:11:56;;;;;;;1999.90;999.90;;;;;;;27.65;40.72;98005.97;3894168;75;43568;-24
2021/06/18 20:17:03;;;;;;;1999.90;999.90;;;;;;;27.57;41.38;98006.56;4005408;73;43373;-24
2021/06/18 20:22:10;;;;;;;1999.90;999.90;;;;;;;27.42;42.48;98014.88;4028977;73;44042;-21
2021/06/18 20:27:16;;;;;;;1999.90;999.90;;;;;;;27.22;43.99;98013.28;3921331;75;44507;-23
2021/06/18 20:32:22;;;;;;;1999.90;999.90;;;;;;;27.02;45.09;98012.77;3916299;73;44455;-16
2021/06/18 20:37:28;;;;;;;1999.90;999.90;;;;;;;26.83;45.55;98018.04;3922436;75;43406;-19
2021/06/18 20:42:34;;;;;;;1999.90;999.90;;;;;;;26.84;45.76;98016.12;3924561;75;43412;-17
2021/06/18 20:47:40;;;;;;;1999.90;999.90;;;;;;;26.70;46.82;98010.28;3931258;73;43685;-18
2021/06/18 20:52:47;;;;;;;1999.90;999.90;;;;;;;26.51;47.99;98007.27;3935567;74;44687;-19
2021/06/18 20:57:53;;;;;;;1999.90;999.90;;;;;;;26.49;49.10;97995.09;3937138;74;44521;-21
2021/06/18 21:08:14;;;;;;;1999.90;999.90;;;;;;;26.53;51.46;97998.13;4016627;73;27275;-17
2021/06/18 21:13:21;;;;;;;1999.90;999.90;;;;;;;26.47;49.87;97995.92;3963560;73;45241;-16
2021/06/18 21:18:28;;;;;;;1999.90;999.90;;;;;;;26.52;49.93;97997.88;3959314;73;43045;-15
2021/06/18 21:23:34;;;;;;;1999.90;999.90;;;;;;;26.52;50.30;97995.13;3979037;73;44394;-21
2021/06/18 21:28:41;;;;;;;1999.90;999.90;;;;;;;26.50;52.21;97994.00;3988953;73;43293;-21
2021/06/18 21:33:48;;;;;;;1999.90;999.90;;;;;;;26.31;52.06;97992.33;3958573;73;43638;-21
2021/06/18 21:38:54;;;;;;;1999.90;999.90;;;;;;;26.03;53.49;97987.59;3958299;75;43994;-21
2021/06/18 21:44:00;;;;;;;1999.90;999.90;;;;;;;25.98;53.55;97997.23;3956911;73;43706;-21
2021/06/18 21:49:07;;;;;;;1999.90;999.90;;;;;;;25.93;54.10;97998.61;3953610;75;43976;-21
2021/06/18 21:54:14;;;;;;;1999.90;999.90;;;;;;;25.87;54.95;98004.67;3953282;75;43459;-21
2021/06/18 21:59:21;;;;;;;1999.90;999.90;;;;;;;25.46;57.54;98022.44;3953566;75;43713;-20
2021/06/18 22:04:28;;;;;;;1999.90;999.90;;;;;;;25.03;59.10;98022.44;3956493;73;43354;-20
2021/06/18 22:09:35;;;;;;;1999.90;999.90;;;;;;;24.91;59.26;98027.60;3953735;75;43087;-21
2021/06/18 22:14:42;;;;;;;1999.90;999.90;;;;;;;24.83;59.97;98028.11;3953653;75;44075;-21
2021/06/18 22:19:51;;;;;;;1999.90;999.90;;;;;;;24.72;60.78;98036.02;3952284;75;44763;-21
2021/06/18 22:24:55;;;;;;;1999.90;999.90;;;;;;;24.47;61.59;98043.75;3952209;75;43696;-21
2021/06/18 22:30:02;;;;;;;1999.90;999.90;;;;;;;24.45;61.41;98043.20;3951834;75;43211;-22
2021/06/18 22:35:12;;;;;;;1999.90;999.90;;;;;;;24.24;62.67;98039.41;3952205;74;44229;-21
2021/06/18 22:40:19;;;;;;;1999.90;999.90;;;;;;;24.06;63.95;98047.48;3952266;75;42891;-21
2021/06/18 22:45:27;;;;;;;1999.90;999.90;;;;;;;24.10;62.51;98043.67;4008190;73;44135;-21
2021/06/18 22:50:35;;;;;;;1999.90;999.90;;;;;;;24.01;63.89;98048.80;4040425;73;44027;-21
2021/06/18 22:55:42;;;;;;;1999.90;999.90;;;;;;;23.97;64.44;98042.98;3969217;73;43109;-21
2021/06/18 23:00:51;;;;;;;1999.90;999.90;;;;;;;23.89;65.17;98047.55;3876472;76;43967;-21
2021/06/18 23:05:57;;;;;;;1999.90;999.90;;;;;;;23.84;65.21;98055.20;3943463;74;43706;-20
2021/06/18 23:11:03;;;;;;;1999.90;999.90;;;;;;;23.79;64.89;98056.50;3926080;75;43399;-20
2021/06/18 23:16:10;;;;;;;1999.90;999.90;;;;;;;23.73;65.00;98057.55;3987206;74;43203;-21
2021/06/18 23:21:16;;;;;;;1999.90;999.90;;;;;;;23.73;63.98;98055.31;3995546;74;43330;-20
2021/06/18 23:26:24;;;;;;;1999.90;999.90;;;;;;;23.75;63.96;98053.15;3936684;74;44034;-20
2021/06/18 23:31:30;;;;;;;1999.90;999.90;;;;;;;23.69;63.69;98046.23;3860468;77;43397;-20
2021/06/18 23:36:37;;;;;;;1999.90;999.90;;;;;;;23.68;63.34;98042.34;3927209;74;43688;-20
2021/06/18 23:41:43;;;;;;;1999.90;999.90;;;;;;;23.67;63.39;98041.52;3926286;75;43514;-20
2021/06/18 23:46:49;;;;;;;1999.90;999.90;;;;;;;23.72;63.26;98037.15;3929295;75;43921;-20
2021/06/18 23:51:55;;;;;;;1999.90;999.90;;;;;;;23.70;63.33;98020.92;3932230;75;43724;-20
2021/06/18 23:57:01;;;;;;;1999.90;999.90;;;;;;;23.69;63.78;98031.10;3926297;75;43411;-20
